sensor_id;sensor_type;location;lat;lon;timestamp;temperature;humidity
17066;DHT22;23120;52.336;21.182;2022-10-31T00:01:50;9.10;91.50
17066;DHT22;23120;52.336;21.182;2022-10-31T00:04:16;9.10;91.40
17066;DHT22;23120;52.336;21.182;2022-10-31T00:06:43;9.10;91.50
17066;DHT22;23120;52.336;21.182;2022-10-31T00:09:10;9.00;91.30
17066;DHT22;23120;52.336;21.182;2022-10-31T00:11:37;9.00;91.50
17066;DHT22;23120;52.336;21.182;2022-10-31T00:14:05;9.00;91.40
17066;DHT22;23120;52.336;21.182;2022-10-31T00:16:32;9.00;91.40
17066;DHT22;23120;52.336;21.182;2022-10-31T00:19:01;8.90;91.60
17066;DHT22;23120;52.336;21.182;2022-10-31T00:21:30;8.90;91.80
17066;DHT22;23120;52.336;21.182;2022-10-31T00:23:57;8.90;91.50
17066;DHT22;23120;52.336;21.182;2022-10-31T00:26:25;8.90;91.20
17066;DHT22;23120;52.336;21.182;2022-10-31T00:28:52;8.90;91.40
17066;DHT22;23120;52.336;21.182;2022-10-31T00:31:21;8.80;91.50
17066;DHT22;23120;52.336;21.182;2022-10-31T00:33:49;8.80;91.60
17066;DHT22;23120;52.336;21.182;2022-10-31T00:36:18;8.80;91.50
17066;DHT22;23120;52.336;21.182;2022-10-31T00:38:46;8.80;91.40
17066;DHT22;23120;52.336;21.182;2022-10-31T00:41:15;8.70;91.50
17066;DHT22;23120;52.336;21.182;2022-10-31T00:43:42;8.70;91.60
17066;DHT22;23120;52.336;21.182;2022-10-31T00:46:09;8.70;91.40
17066;DHT22;23120;52.336;21.182;2022-10-31T00:48:37;8.70;91.70
17066;DHT22;23120;52.336;21.182;2022-10-31T00:51:04;8.70;91.50
17066;DHT22;23120;52.336;21.182;2022-10-31T00:53:32;8.60;91.20
17066;DHT22;23120;52.336;21.182;2022-10-31T00:55:58;8.60;91.50
17066;DHT22;23120;52.336;21.182;2022-10-31T00:58:25;8.60;91.60
17066;DHT22;23120;52.336;21.182;2022-10-31T01:00:52;8.60;91.50
17066;DHT22;23120;52.336;21.182;2022-10-31T01:03:22;8.50;91.30
17066;DHT22;23120;52.336;21.182;2022-10-31T01:05:58;8.50;91.30
17066;DHT22;23120;52.336;21.182;2022-10-31T01:08:25;8.50;91.50
17066;DHT22;23120;52.336;21.182;2022-10-31T01:11:01;8.50;91.50
17066;DHT22;23120;52.336;21.182;2022-10-31T01:13:28;8.40;91.50
17066;DHT22;23120;52.336;21.182;2022-10-31T01:15:55;8.40;91.30
17066;DHT22;23120;52.336;21.182;2022-10-31T01:18:22;8.40;91.60
17066;DHT22;23120;52.336;21.182;2022-10-31T01:20:59;8.40;91.50
17066;DHT22;23120;52.336;21.182;2022-10-31T01:23:26;8.40;91.40
17066;DHT22;23120;52.336;21.182;2022-10-31T01:26:05;8.30;91.70
17066;DHT22;23120;52.336;21.182;2022-10-31T01:28:32;8.30;91.60
17066;DHT22;23120;52.336;21.182;2022-10-31T01:31:04;8.30;91.40
17066;DHT22;23120;52.336;21.182;2022-10-31T01:33:33;8.30;91.60
17066;DHT22;23120;52.336;21.182;2022-10-31T01:36:10;8.20;91.50
17066;DHT22;23120;52.336;21.182;2022-10-31T01:38:37;8.20;91.40
17066;DHT22;23120;52.336;21.182;2022-10-31T01:41:04;8.20;91.50
17066;DHT22;23120;52.336;21.182;2022-10-31T01:43:45;8.20;91.30
17066;DHT22;23120;52.336;21.182;2022-10-31T01:46:13;8.20;91.70
17066;DHT22;23120;52.336;21.182;2022-10-31T01:48:42;8.20;91.50
17066;DHT22;23120;52.336;21.182;2022-10-31T01:51:11;8.10;91.20
17066;DHT22;23120;52.336;21.182;2022-10-31T01:53:39;8.10;91.40
17066;DHT22;23120;52.336;21.182;2022-10-31T01:56:07;8.10;91.30
17066;DHT22;23120;52.336;21.182;2022-10-31T01:58:36;8.10;91.70
17066;DHT22;23120;52.336;21.182;2022-10-31T02:01:04;8.00;91.60
17066;DHT22;23120;52.336;21.182;2022-10-31T02:03:31;8.00;91.60
17066;DHT22;23120;52.336;21.182;2022-10-31T02:05:58;8.00;91.70
17066;DHT22;23120;52.336;21.182;2022-10-31T02:08:28;8.00;91.50
17066;DHT22;23120;52.336;21.182;2022-10-31T02:10:57;8.00;91.60
17066;DHT22;23120;52.336;21.182;2022-10-31T02:13:24;8.00;91.60
17066;DHT22;23120;52.336;21.182;2022-10-31T02:15:53;7.90;91.60
17066;DHT22;23120;52.336;21.182;2022-10-31T02:18:22;7.90;91.60
17066;DHT22;23120;52.336;21.182;2022-10-31T02:20:58;7.90;91.90
17066;DHT22;23120;52.336;21.182;2022-10-31T02:24:02;7.90;91.60
17066;DHT22;23120;52.336;21.182;2022-10-31T02:26:51;7.80;91.50
17066;DHT22;23120;52.336;21.182;2022-10-31T02:29:47;7.80;91.60
17066;DHT22;23120;52.336;21.182;2022-10-31T02:32:27;7.80;91.60
17066;DHT22;23120;52.336;21.182;2022-10-31T02:34:59;7.80;91.60
17066;DHT22;23120;52.336;21.182;2022-10-31T02:37:36;7.70;91.50
17066;DHT22;23120;52.336;21.182;2022-10-31T02:40:12;7.70;91.50
17066;DHT22;23120;52.336;21.182;2022-10-31T02:43:05;7.70;91.50
17066;DHT22;23120;52.336;21.182;2022-10-31T02:45:38;7.70;91.50
17066;DHT22;23120;52.336;21.182;2022-10-31T02:48:13;7.70;91.50
17066;DHT22;23120;52.336;21.182;2022-10-31T02:50:47;7.60;91.50
17066;DHT22;23120;52.336;21.182;2022-10-31T02:53:16;7.60;91.50
17066;DHT22;23120;52.336;21.182;2022-10-31T02:55:54;7.60;91.50
17066;DHT22;23120;52.336;21.182;2022-10-31T02:58:25;7.60;91.50
17066;DHT22;23120;52.336;21.182;2022-10-31T03:01:14;7.60;91.50
17066;DHT22;23120;52.336;21.182;2022-10-31T03:03:58;7.60;91.50
17066;DHT22;23120;52.336;21.182;2022-10-31T03:06:30;7.50;91.40
17066;DHT22;23120;52.336;21.182;2022-10-31T03:09:05;7.50;91.40
17066;DHT22;23120;52.336;21.182;2022-10-31T03:11:45;7.50;91.40
17066;DHT22;23120;52.336;21.182;2022-10-31T03:14:19;7.50;91.40
17066;DHT22;23120;52.336;21.182;2022-10-31T03:16:54;7.50;91.50
17066;DHT22;23120;52.336;21.182;2022-10-31T03:19:28;7.40;91.40
17066;DHT22;23120;52.336;21.182;2022-10-31T03:21:58;7.40;91.40
17066;DHT22;23120;52.336;21.182;2022-10-31T03:24:30;7.40;91.60
17066;DHT22;23120;52.336;21.182;2022-10-31T03:26:59;7.40;91.40
17066;DHT22;23120;52.336;21.182;2022-10-31T03:29:32;7.40;91.60
17066;DHT22;23120;52.336;21.182;2022-10-31T03:32:02;7.40;91.70
17066;DHT22;23120;52.336;21.182;2022-10-31T03:34:35;7.40;91.40
17066;DHT22;23120;52.336;21.182;2022-10-31T03:37:06;7.30;91.70
17066;DHT22;23120;52.336;21.182;2022-10-31T03:39:34;7.40;91.70
17066;DHT22;23120;52.336;21.182;2022-10-31T03:42:05;7.30;91.40
17066;DHT22;23120;52.336;21.182;2022-10-31T03:44:33;7.30;91.30
17066;DHT22;23120;52.336;21.182;2022-10-31T03:47:02;7.30;91.60
17066;DHT22;23120;52.336;21.182;2022-10-31T03:49:30;7.30;91.90
17066;DHT22;23120;52.336;21.182;2022-10-31T03:52:03;7.30;91.60
17066;DHT22;23120;52.336;21.182;2022-10-31T03:54:37;7.30;91.40
17066;DHT22;23120;52.336;21.182;2022-10-31T03:57:10;7.30;91.60
17066;DHT22;23120;52.336;21.182;2022-10-31T03:59:41;7.20;91.30
17066;DHT22;23120;52.336;21.182;2022-10-31T04:02:13;7.20;91.60
17066;DHT22;23120;52.336;21.182;2022-10-31T04:04:42;7.20;91.50
17066;DHT22;23120;52.336;21.182;2022-10-31T04:07:13;7.20;91.60
17066;DHT22;23120;52.336;21.182;2022-10-31T04:09:43;7.20;91.30
17066;DHT22;23120;52.336;21.182;2022-10-31T04:12:13;7.20;91.50
17066;DHT22;23120;52.336;21.182;2022-10-31T04:14:55;7.20;91.30
17066;DHT22;23120;52.336;21.182;2022-10-31T04:17:23;7.10;91.60
17066;DHT22;23120;52.336;21.182;2022-10-31T04:19:52;7.10;91.50
17066;DHT22;23120;52.336;21.182;2022-10-31T04:22:20;7.10;91.40
17066;DHT22;23120;52.336;21.182;2022-10-31T04:24:47;7.10;91.30
17066;DHT22;23120;52.336;21.182;2022-10-31T04:27:16;7.10;91.40
17066;DHT22;23120;52.336;21.182;2022-10-31T04:29:42;7.00;91.70
17066;DHT22;23120;52.336;21.182;2022-10-31T04:32:09;7.00;91.50
17066;DHT22;23120;52.336;21.182;2022-10-31T04:34:37;7.00;91.50
17066;DHT22;23120;52.336;21.182;2022-10-31T04:37:04;7.00;91.70
17066;DHT22;23120;52.336;21.182;2022-10-31T04:39:33;7.00;91.50
17066;DHT22;23120;52.336;21.182;2022-10-31T04:42:20;7.00;91.50
17066;DHT22;23120;52.336;21.182;2022-10-31T04:44:46;7.00;91.50
17066;DHT22;23120;52.336;21.182;2022-10-31T04:47:14;6.90;91.40
17066;DHT22;23120;52.336;21.182;2022-10-31T04:49:42;6.90;91.40
17066;DHT22;23120;52.336;21.182;2022-10-31T04:52:10;6.90;91.40
17066;DHT22;23120;52.336;21.182;2022-10-31T04:54:38;6.90;91.40
17066;DHT22;23120;52.336;21.182;2022-10-31T04:57:24;6.90;91.50
17066;DHT22;23120;52.336;21.182;2022-10-31T04:59:51;6.90;91.50
17066;DHT22;23120;52.336;21.182;2022-10-31T05:02:17;6.90;91.40
17066;DHT22;23120;52.336;21.182;2022-10-31T05:04:51;6.90;91.40
17066;DHT22;23120;52.336;21.182;2022-10-31T05:07:18;6.80;91.60
17066;DHT22;23120;52.336;21.182;2022-10-31T05:09:46;6.80;91.70
17066;DHT22;23120;52.336;21.182;2022-10-31T05:12:13;6.80;91.30
17066;DHT22;23120;52.336;21.182;2022-10-31T05:14:54;6.80;91.60
17066;DHT22;23120;52.336;21.182;2022-10-31T05:17:40;6.80;91.50
17066;DHT22;23120;52.336;21.182;2022-10-31T05:20:27;6.80;91.60
17066;DHT22;23120;52.336;21.182;2022-10-31T05:23:06;6.70;91.70
17066;DHT22;23120;52.336;21.182;2022-10-31T05:25:34;6.70;91.60
17066;DHT22;23120;52.336;21.182;2022-10-31T05:28:03;6.70;91.60
17066;DHT22;23120;52.336;21.182;2022-10-31T05:30:31;6.70;91.60
17066;DHT22;23120;52.336;21.182;2022-10-31T05:32:58;6.70;91.30
17066;DHT22;23120;52.336;21.182;2022-10-31T05:35:44;6.70;91.70
17066;DHT22;23120;52.336;21.182;2022-10-31T05:38:28;6.60;91.70
17066;DHT22;23120;52.336;21.182;2022-10-31T05:41:00;6.60;91.80
17066;DHT22;23120;52.336;21.182;2022-10-31T05:43:29;6.60;91.80
17066;DHT22;23120;52.336;21.182;2022-10-31T05:45:56;6.60;91.60
17066;DHT22;23120;52.336;21.182;2022-10-31T05:48:34;6.60;91.70
17066;DHT22;23120;52.336;21.182;2022-10-31T05:51:21;6.60;91.80
17066;DHT22;23120;52.336;21.182;2022-10-31T05:53:47;6.60;91.80
17066;DHT22;23120;52.336;21.182;2022-10-31T05:56:16;6.60;91.70
17066;DHT22;23120;52.336;21.182;2022-10-31T05:58:43;6.60;91.70
17066;DHT22;23120;52.336;21.182;2022-10-31T06:01:10;6.60;91.90
17066;DHT22;23120;52.336;21.182;2022-10-31T06:03:37;6.60;91.90
17066;DHT22;23120;52.336;21.182;2022-10-31T06:06:07;6.60;91.90
17066;DHT22;23120;52.336;21.182;2022-10-31T06:08:36;6.50;91.80
17066;DHT22;23120;52.336;21.182;2022-10-31T06:11:06;6.60;92.00
17066;DHT22;23120;52.336;21.182;2022-10-31T06:13:45;6.60;92.20
17066;DHT22;23120;52.336;21.182;2022-10-31T06:16:18;6.60;92.10
17066;DHT22;23120;52.336;21.182;2022-10-31T06:18:45;6.60;92.10
17066;DHT22;23120;52.336;21.182;2022-10-31T06:21:13;6.60;92.20
17066;DHT22;23120;52.336;21.182;2022-10-31T06:23:39;6.60;92.30
17066;DHT22;23120;52.336;21.182;2022-10-31T06:26:24;6.60;92.20
17066;DHT22;23120;52.336;21.182;2022-10-31T06:28:53;6.60;92.30
17066;DHT22;23120;52.336;21.182;2022-10-31T06:31:40;6.70;92.20
17066;DHT22;23120;52.336;21.182;2022-10-31T06:34:07;6.60;92.20
17066;DHT22;23120;52.336;21.182;2022-10-31T06:36:34;6.70;92.30
17066;DHT22;23120;52.336;21.182;2022-10-31T06:39:02;6.70;92.20
17066;DHT22;23120;52.336;21.182;2022-10-31T06:41:29;6.70;92.20
17066;DHT22;23120;52.336;21.182;2022-10-31T06:43:58;6.70;92.20
17066;DHT22;23120;52.336;21.182;2022-10-31T06:46:46;6.80;92.10
17066;DHT22;23120;52.336;21.182;2022-10-31T06:49:30;6.70;92.20
17066;DHT22;23120;52.336;21.182;2022-10-31T06:52:01;6.80;92.20
17066;DHT22;23120;52.336;21.182;2022-10-31T06:54:28;6.80;92.20
17066;DHT22;23120;52.336;21.182;2022-10-31T06:56:55;6.80;92.10
17066;DHT22;23120;52.336;21.182;2022-10-31T06:59:23;6.90;92.20
17066;DHT22;23120;52.336;21.182;2022-10-31T07:02:04;6.90;92.30
17066;DHT22;23120;52.336;21.182;2022-10-31T07:04:32;6.90;92.30
17066;DHT22;23120;52.336;21.182;2022-10-31T07:07:00;6.90;92.30
17066;DHT22;23120;52.336;21.182;2022-10-31T07:09:27;6.90;92.30
17066;DHT22;23120;52.336;21.182;2022-10-31T07:11:55;7.00;92.30
17066;DHT22;23120;52.336;21.182;2022-10-31T07:14:24;7.00;92.40
17066;DHT22;23120;52.336;21.182;2022-10-31T07:16:52;7.10;92.40
17066;DHT22;23120;52.336;21.182;2022-10-31T07:19:24;7.10;92.60
17066;DHT22;23120;52.336;21.182;2022-10-31T07:21:51;7.20;92.80
17066;DHT22;23120;52.336;21.182;2022-10-31T07:24:18;7.20;92.90
17066;DHT22;23120;52.336;21.182;2022-10-31T07:27:04;7.20;93.00
17066;DHT22;23120;52.336;21.182;2022-10-31T07:29:32;7.30;93.20
17066;DHT22;23120;52.336;21.182;2022-10-31T07:31:59;7.40;93.40
17066;DHT22;23120;52.336;21.182;2022-10-31T07:34:28;7.50;93.50
17066;DHT22;23120;52.336;21.182;2022-10-31T07:37:14;7.50;93.50
17066;DHT22;23120;52.336;21.182;2022-10-31T07:39:41;7.60;93.90
17066;DHT22;23120;52.336;21.182;2022-10-31T07:42:08;7.70;94.10
17066;DHT22;23120;52.336;21.182;2022-10-31T07:44:37;7.70;94.10
17066;DHT22;23120;52.336;21.182;2022-10-31T07:47:14;7.80;94.00
17066;DHT22;23120;52.336;21.182;2022-10-31T07:49:54;8.00;94.10
17066;DHT22;23120;52.336;21.182;2022-10-31T07:52:34;8.10;93.90
17066;DHT22;23120;52.336;21.182;2022-10-31T07:55:14;8.20;93.70
17066;DHT22;23120;52.336;21.182;2022-10-31T07:57:46;8.30;93.80
17066;DHT22;23120;52.336;21.182;2022-10-31T08:00:14;8.40;93.50
17066;DHT22;23120;52.336;21.182;2022-10-31T08:02:41;8.60;93.30
17066;DHT22;23120;52.336;21.182;2022-10-31T08:05:24;8.70;93.20
17066;DHT22;23120;52.336;21.182;2022-10-31T08:08:11;8.80;93.10
17066;DHT22;23120;52.336;21.182;2022-10-31T08:10:38;8.90;92.80
17066;DHT22;23120;52.336;21.182;2022-10-31T08:13:08;9.00;92.60
17066;DHT22;23120;52.336;21.182;2022-10-31T08:15:40;9.20;92.40
17066;DHT22;23120;52.336;21.182;2022-10-31T08:18:11;9.30;92.20
17066;DHT22;23120;52.336;21.182;2022-10-31T08:20:39;9.40;92.20
17066;DHT22;23120;52.336;21.182;2022-10-31T08:23:06;9.60;92.30
17066;DHT22;23120;52.336;21.182;2022-10-31T08:25:35;9.70;92.10
17066;DHT22;23120;52.336;21.182;2022-10-31T08:28:02;9.80;92.10
17066;DHT22;23120;52.336;21.182;2022-10-31T08:30:32;9.90;92.10
17066;DHT22;23120;52.336;21.182;2022-10-31T08:33:17;10.00;91.70
17066;DHT22;23120;52.336;21.182;2022-10-31T08:36:04;10.20;91.80
17066;DHT22;23120;52.336;21.182;2022-10-31T08:38:48;10.30;91.80
17066;DHT22;23120;52.336;21.182;2022-10-31T08:41:16;10.40;91.70
17066;DHT22;23120;52.336;21.182;2022-10-31T08:43:43;10.60;91.70
17066;DHT22;23120;52.336;21.182;2022-10-31T08:46:10;10.70;91.60
17066;DHT22;23120;52.336;21.182;2022-10-31T08:48:40;10.80;91.60
17066;DHT22;23120;52.336;21.182;2022-10-31T08:51:07;10.90;91.50
17066;DHT22;23120;52.336;21.182;2022-10-31T08:53:35;11.10;91.60
17066;DHT22;23120;52.336;21.182;2022-10-31T08:56:14;11.20;91.60
17066;DHT22;23120;52.336;21.182;2022-10-31T08:58:41;11.30;91.50
17066;DHT22;23120;52.336;21.182;2022-10-31T09:01:08;11.50;91.40
17066;DHT22;23120;52.336;21.182;2022-10-31T09:03:35;11.60;91.40
17066;DHT22;23120;52.336;21.182;2022-10-31T09:06:03;11.70;91.60
17066;DHT22;23120;52.336;21.182;2022-10-31T09:08:34;11.80;91.50
17066;DHT22;23120;52.336;21.182;2022-10-31T09:11:02;11.90;91.40
17066;DHT22;23120;52.336;21.182;2022-10-31T09:13:49;12.00;91.30
17066;DHT22;23120;52.336;21.182;2022-10-31T09:16:34;12.20;91.30
17066;DHT22;23120;52.336;21.182;2022-10-31T09:19:01;12.30;91.20
17066;DHT22;23120;52.336;21.182;2022-10-31T09:21:29;12.40;91.10
17066;DHT22;23120;52.336;21.182;2022-10-31T09:23:58;12.50;91.10
17066;DHT22;23120;52.336;21.182;2022-10-31T09:26:24;12.70;91.00
17066;DHT22;23120;52.336;21.182;2022-10-31T09:29:06;12.80;91.10
17066;DHT22;23120;52.336;21.182;2022-10-31T09:31:35;12.90;91.00
17066;DHT22;23120;52.336;21.182;2022-10-31T09:34:05;13.00;91.10
17066;DHT22;23120;52.336;21.182;2022-10-31T09:36:43;13.20;91.00
17066;DHT22;23120;52.336;21.182;2022-10-31T09:39:23;13.30;91.00
17066;DHT22;23120;52.336;21.182;2022-10-31T09:42:06;13.40;91.20
17066;DHT22;23120;52.336;21.182;2022-10-31T09:44:47;13.50;91.10
17066;DHT22;23120;52.336;21.182;2022-10-31T09:47:30;13.70;91.00
17066;DHT22;23120;52.336;21.182;2022-10-31T09:50:18;13.80;90.90
17066;DHT22;23120;52.336;21.182;2022-10-31T09:52:53;13.90;90.90
17066;DHT22;23120;52.336;21.182;2022-10-31T09:55:31;14.10;91.20
17066;DHT22;23120;52.336;21.182;2022-10-31T09:58:02;14.20;91.30
17066;DHT22;23120;52.336;21.182;2022-10-31T10:00:29;14.30;91.00
17066;DHT22;23120;52.336;21.182;2022-10-31T10:03:02;14.40;90.90
17066;DHT22;23120;52.336;21.182;2022-10-31T10:05:34;14.50;91.00
17066;DHT22;23120;52.336;21.182;2022-10-31T10:08:11;14.70;90.90
17066;DHT22;23120;52.336;21.182;2022-10-31T10:10:58;14.70;90.70
17066;DHT22;23120;52.336;21.182;2022-10-31T10:13:57;14.80;90.70
17066;DHT22;23120;52.336;21.182;2022-10-31T10:16:34;15.00;90.60
17066;DHT22;23120;52.336;21.182;2022-10-31T10:19:15;15.10;90.50
17066;DHT22;23120;52.336;21.182;2022-10-31T10:21:51;15.20;90.50
17066;DHT22;23120;52.336;21.182;2022-10-31T10:24:33;15.30;90.50
17066;DHT22;23120;52.336;21.182;2022-10-31T10:27:10;15.40;90.80
17066;DHT22;23120;52.336;21.182;2022-10-31T10:29:44;15.50;90.30
17066;DHT22;23120;52.336;21.182;2022-10-31T10:32:18;15.60;90.20
17066;DHT22;23120;52.336;21.182;2022-10-31T10:34:50;15.70;90.30
17066;DHT22;23120;52.336;21.182;2022-10-31T10:37:25;15.80;90.50
17066;DHT22;23120;52.336;21.182;2022-10-31T10:39:59;15.90;90.10
17066;DHT22;23120;52.336;21.182;2022-10-31T10:42:27;16.00;90.10
17066;DHT22;23120;52.336;21.182;2022-10-31T10:45:17;16.10;90.60
17066;DHT22;23120;52.336;21.182;2022-10-31T10:48:07;16.30;90.40
17066;DHT22;23120;52.336;21.182;2022-10-31T10:50:39;16.40;90.10
17066;DHT22;23120;52.336;21.182;2022-10-31T10:53:18;16.50;90.20
17066;DHT22;23120;52.336;21.182;2022-10-31T10:56:03;16.50;90.00
17066;DHT22;23120;52.336;21.182;2022-10-31T10:58:31;16.60;89.40
17066;DHT22;23120;52.336;21.182;2022-10-31T11:00:57;16.70;89.60
17066;DHT22;23120;52.336;21.182;2022-10-31T11:03:24;16.80;89.60
17066;DHT22;23120;52.336;21.182;2022-10-31T11:05:52;16.90;90.00
17066;DHT22;23120;52.336;21.182;2022-10-31T11:08:26;17.30;89.10
17066;DHT22;23120;52.336;21.182;2022-10-31T11:10:58;17.50;83.00
17066;DHT22;23120;52.336;21.182;2022-10-31T11:13:25;17.60;85.80
17066;DHT22;23120;52.336;21.182;2022-10-31T11:15:57;17.70;84.20
17066;DHT22;23120;52.336;21.182;2022-10-31T11:18:26;17.80;84.80
17066;DHT22;23120;52.336;21.182;2022-10-31T11:20:55;17.90;83.10
17066;DHT22;23120;52.336;21.182;2022-10-31T11:23:23;18.00;83.20
17066;DHT22;23120;52.336;21.182;2022-10-31T11:25:53;18.10;81.80
17066;DHT22;23120;52.336;21.182;2022-10-31T11:28:22;18.10;83.00
17066;DHT22;23120;52.336;21.182;2022-10-31T11:30:51;18.20;82.90
17066;DHT22;23120;52.336;21.182;2022-10-31T11:33:22;18.30;82.00
17066;DHT22;23120;52.336;21.182;2022-10-31T11:35:52;18.30;81.40
17066;DHT22;23120;52.336;21.182;2022-10-31T11:38:21;18.40;82.10
17066;DHT22;23120;52.336;21.182;2022-10-31T11:40:54;18.50;82.20
17066;DHT22;23120;52.336;21.182;2022-10-31T11:43:24;18.50;83.10
17066;DHT22;23120;52.336;21.182;2022-10-31T11:45:51;18.60;82.30
17066;DHT22;23120;52.336;21.182;2022-10-31T11:48:20;18.60;80.90
17066;DHT22;23120;52.336;21.182;2022-10-31T11:50:50;18.60;80.00
17066;DHT22;23120;52.336;21.182;2022-10-31T11:53:19;18.70;80.50
17066;DHT22;23120;52.336;21.182;2022-10-31T11:56:05;18.70;81.70
17066;DHT22;23120;52.336;21.182;2022-10-31T11:58:33;18.70;81.00
17066;DHT22;23120;52.336;21.182;2022-10-31T12:01:00;18.80;82.10
17066;DHT22;23120;52.336;21.182;2022-10-31T12:03:37;18.80;82.40
17066;DHT22;23120;52.336;21.182;2022-10-31T12:06:08;18.80;82.50
17066;DHT22;23120;52.336;21.182;2022-10-31T12:08:38;18.90;81.70
17066;DHT22;23120;52.336;21.182;2022-10-31T12:11:13;18.90;82.60
17066;DHT22;23120;52.336;21.182;2022-10-31T12:13:51;18.90;82.60
17066;DHT22;23120;52.336;21.182;2022-10-31T12:16:27;18.90;81.30
17066;DHT22;23120;52.336;21.182;2022-10-31T12:19:02;18.90;81.80
17066;DHT22;23120;52.336;21.182;2022-10-31T12:21:45;19.00;80.30
17066;DHT22;23120;52.336;21.182;2022-10-31T12:24:27;19.00;82.30
17066;DHT22;23120;52.336;21.182;2022-10-31T12:27:03;19.00;82.30
17066;DHT22;23120;52.336;21.182;2022-10-31T12:29:45;19.00;80.70
17066;DHT22;23120;52.336;21.182;2022-10-31T12:32:22;19.10;81.00
17066;DHT22;23120;52.336;21.182;2022-10-31T12:35:19;19.10;81.30
17066;DHT22;23120;52.336;21.182;2022-10-31T12:38:05;19.10;82.80
17066;DHT22;23120;52.336;21.182;2022-10-31T12:40:43;19.10;82.20
17066;DHT22;23120;52.336;21.182;2022-10-31T12:43:26;19.10;82.20
17066;DHT22;23120;52.336;21.182;2022-10-31T12:45:58;19.10;81.40
17066;DHT22;23120;52.336;21.182;2022-10-31T12:49:10;19.10;80.90
17066;DHT22;23120;52.336;21.182;2022-10-31T12:51:48;19.20;80.70
17066;DHT22;23120;52.336;21.182;2022-10-31T12:54:34;19.30;81.30
17066;DHT22;23120;52.336;21.182;2022-10-31T12:57:13;19.40;81.50
17066;DHT22;23120;52.336;21.182;2022-10-31T12:59:45;19.50;83.10
17066;DHT22;23120;52.336;21.182;2022-10-31T13:02:18;19.60;83.30
17066;DHT22;23120;52.336;21.182;2022-10-31T13:04:50;19.60;83.30
17066;DHT22;23120;52.336;21.182;2022-10-31T13:07:21;19.70;82.50
17066;DHT22;23120;52.336;21.182;2022-10-31T13:09:56;19.70;83.40
17066;DHT22;23120;52.336;21.182;2022-10-31T13:12:24;19.70;82.80
17066;DHT22;23120;52.336;21.182;2022-10-31T13:14:55;19.70;82.50
17066;DHT22;23120;52.336;21.182;2022-10-31T13:17:29;19.70;83.40
17066;DHT22;23120;52.336;21.182;2022-10-31T13:20:13;19.70;82.40
17066;DHT22;23120;52.336;21.182;2022-10-31T13:22:44;19.70;83.50
17066;DHT22;23120;52.336;21.182;2022-10-31T13:25:15;19.70;81.90
17066;DHT22;23120;52.336;21.182;2022-10-31T13:27:47;19.70;83.60
17066;DHT22;23120;52.336;21.182;2022-10-31T13:30:17;19.70;83.40
17066;DHT22;23120;52.336;21.182;2022-10-31T13:32:50;19.70;84.00
17066;DHT22;23120;52.336;21.182;2022-10-31T13:35:24;19.70;83.40
17066;DHT22;23120;52.336;21.182;2022-10-31T13:38:08;19.70;84.70
17066;DHT22;23120;52.336;21.182;2022-10-31T13:40:43;19.70;86.30
17066;DHT22;23120;52.336;21.182;2022-10-31T13:43:21;19.70;87.00
17066;DHT22;23120;52.336;21.182;2022-10-31T13:45:51;19.70;87.40
17066;DHT22;23120;52.336;21.182;2022-10-31T13:48:37;19.70;87.00
17066;DHT22;23120;52.336;21.182;2022-10-31T13:51:09;19.70;83.40
17066;DHT22;23120;52.336;21.182;2022-10-31T13:53:38;19.60;84.80
17066;DHT22;23120;52.336;21.182;2022-10-31T13:56:14;19.60;86.60
17066;DHT22;23120;52.336;21.182;2022-10-31T13:58:54;19.50;84.20
17066;DHT22;23120;52.336;21.182;2022-10-31T14:01:22;19.50;86.30
17066;DHT22;23120;52.336;21.182;2022-10-31T14:03:59;19.40;86.70
17066;DHT22;23120;52.336;21.182;2022-10-31T14:06:43;19.30;86.90
17066;DHT22;23120;52.336;21.182;2022-10-31T14:09:27;19.30;87.20
17066;DHT22;23120;52.336;21.182;2022-10-31T14:11:55;19.10;85.10
17066;DHT22;23120;52.336;21.182;2022-10-31T14:14:26;19.10;85.00
17066;DHT22;23120;52.336;21.182;2022-10-31T14:16:57;19.00;86.30
17066;DHT22;23120;52.336;21.182;2022-10-31T14:19:26;18.90;86.00
17066;DHT22;23120;52.336;21.182;2022-10-31T14:21:53;18.80;86.60
17066;DHT22;23120;52.336;21.182;2022-10-31T14:24:44;18.60;86.70
17066;DHT22;23120;52.336;21.182;2022-10-31T14:27:43;18.50;87.00
17066;DHT22;23120;52.336;21.182;2022-10-31T14:30:16;18.40;87.20
17066;DHT22;23120;52.336;21.182;2022-10-31T14:32:43;18.30;87.40
17066;DHT22;23120;52.336;21.182;2022-10-31T14:35:15;18.10;87.20
17066;DHT22;23120;52.336;21.182;2022-10-31T14:40:42;17.90;87.00
17066;DHT22;23120;52.336;21.182;2022-10-31T14:43:40;17.70;86.50
17066;DHT22;23120;52.336;21.182;2022-10-31T14:46:17;17.60;87.00
17066;DHT22;23120;52.336;21.182;2022-10-31T14:49:01;17.50;87.20
17066;DHT22;23120;52.336;21.182;2022-10-31T14:51:35;17.40;87.70
17066;DHT22;23120;52.336;21.182;2022-10-31T14:54:05;17.20;88.30
17066;DHT22;23120;52.336;21.182;2022-10-31T14:56:35;17.10;86.10
17066;DHT22;23120;52.336;21.182;2022-10-31T14:59:08;17.00;86.00
17066;DHT22;23120;52.336;21.182;2022-10-31T15:01:38;16.90;87.60
17066;DHT22;23120;52.336;21.182;2022-10-31T15:04:16;16.90;87.70
17066;DHT22;23120;52.336;21.182;2022-10-31T15:06:46;16.70;87.90
17066;DHT22;23120;52.336;21.182;2022-10-31T15:09:21;16.60;88.50
17066;DHT22;23120;52.336;21.182;2022-10-31T15:11:49;16.50;89.00
17066;DHT22;23120;52.336;21.182;2022-10-31T15:14:24;16.40;88.90
17066;DHT22;23120;52.336;21.182;2022-10-31T15:16:51;16.30;89.50
17066;DHT22;23120;52.336;21.182;2022-10-31T15:19:21;16.10;89.30
17066;DHT22;23120;52.336;21.182;2022-10-31T15:21:52;16.00;88.50
17066;DHT22;23120;52.336;21.182;2022-10-31T15:24:20;15.90;89.10
17066;DHT22;23120;52.336;21.182;2022-10-31T15:26:48;15.80;89.00
17066;DHT22;23120;52.336;21.182;2022-10-31T15:29:18;15.60;89.40
17066;DHT22;23120;52.336;21.182;2022-10-31T15:31:50;15.50;89.80
17066;DHT22;23120;52.336;21.182;2022-10-31T15:34:21;15.40;89.70
17066;DHT22;23120;52.336;21.182;2022-10-31T15:36:50;15.30;89.60
17066;DHT22;23120;52.336;21.182;2022-10-31T15:39:17;15.20;90.00
17066;DHT22;23120;52.336;21.182;2022-10-31T15:41:49;15.10;88.50
17066;DHT22;23120;52.336;21.182;2022-10-31T15:44:20;15.00;89.20
17066;DHT22;23120;52.336;21.182;2022-10-31T15:46:55;14.80;89.90
17066;DHT22;23120;52.336;21.182;2022-10-31T15:49:29;14.70;90.10
17066;DHT22;23120;52.336;21.182;2022-10-31T15:52:03;14.60;90.10
17066;DHT22;23120;52.336;21.182;2022-10-31T15:54:30;14.50;90.30
17066;DHT22;23120;52.336;21.182;2022-10-31T15:56:57;14.40;90.40
17066;DHT22;23120;52.336;21.182;2022-10-31T15:59:26;14.30;90.40
17066;DHT22;23120;52.336;21.182;2022-10-31T16:02:00;14.20;90.40
17066;DHT22;23120;52.336;21.182;2022-10-31T16:04:27;14.00;90.50